sensor_id;sensor_type;location;lat;lon;timestamp;P1;durP1;ratioP1;P2;durP2;ratioP2
75516;SDS011;64097;52.548;13.406;2023-08-06T06:02:24;3.78;;;3.47;;
75516;SDS011;64097;52.548;13.406;2023-08-06T06:04:50;3.47;;;3.25;;
75516;SDS011;64097;52.548;13.406;2023-08-06T06:07:16;3.50;;;3.30;;
75516;SDS011;64097;52.548;13.406;2023-08-06T06:09:42;4.10;;;3.80;;
75516;SDS011;64097;52.548;13.406;2023-08-06T06:12:07;3.42;;;3.22;;
75516;SDS011;64097;52.548;13.406;2023-08-06T06:14:33;3.40;;;3.20;;
75516;SDS011;64097;52.548;13.406;2023-08-06T06:16:59;3.25;;;3.05;;
75516;SDS011;64097;52.548;13.406;2023-08-06T06:19:25;2.97;;;2.78;;
75516;SDS011;64097;52.548;13.406;2023-08-06T06:21:51;3.05;;;2.85;;
75516;SDS011;64097;52.548;13.406;2023-08-06T06:24:18;3.03;;;2.83;;
75516;SDS011;64097;52.548;13.406;2023-08-06T06:26:43;3.53;;;3.22;;
75516;SDS011;64097;52.548;13.406;2023-08-06T06:29:09;3.25;;;2.95;;
75516;SDS011;64097;52.548;13.406;2023-08-06T06:31:35;3.00;;;2.80;;
75516;SDS011;64097;52.548;13.406;2023-08-06T06:34:00;4.13;;;3.83;;
75516;SDS011;64097;52.548;13.406;2023-08-06T06:36:26;4.07;;;3.78;;
75516;SDS011;64097;52.548;13.406;2023-08-06T06:38:52;4.03;;;3.72;;
75516;SDS011;64097;52.548;13.406;2023-08-06T06:41:17;4.00;;;3.70;;
75516;SDS011;64097;52.548;13.406;2023-08-06T06:43:43;4.30;;;4.00;;
75516;SDS011;64097;52.548;13.406;2023-08-06T06:46:09;4.50;;;4.20;;
75516;SDS011;64097;52.548;13.406;2023-08-06T06:48:35;4.32;;;4.03;;
75516;SDS011;64097;52.548;13.406;2023-08-06T06:51:00;3.95;;;3.65;;
75516;SDS011;64097;52.548;13.406;2023-08-06T06:53:26;4.15;;;3.85;;
75516;SDS011;64097;52.548;13.406;2023-08-06T06:55:55;4.20;;;3.90;;
75516;SDS011;64097;52.548;13.406;2023-08-06T06:58:21;4.13;;;3.90;;
75516;SDS011;64097;52.548;13.406;2023-08-06T07:00:47;4.15;;;3.85;;
75516;SDS011;64097;52.548;13.406;2023-08-06T07:03:16;3.58;;;3.28;;
75516;SDS011;64097;52.548;13.406;2023-08-06T07:05:42;4.15;;;3.85;;
75516;SDS011;64097;52.548;13.406;2023-08-06T07:08:08;4.20;;;3.90;;
75516;SDS011;64097;52.548;13.406;2023-08-06T07:10:34;3.80;;;3.50;;
75516;SDS011;64097;52.548;13.406;2023-08-06T07:12:59;3.70;;;3.50;;
75516;SDS011;64097;52.548;13.406;2023-08-06T07:15:25;4.40;;;4.10;;
75516;SDS011;64097;52.548;13.406;2023-08-06T07:17:51;4.18;;;3.90;;
75516;SDS011;64097;52.548;13.406;2023-08-06T07:20:16;4.50;;;4.13;;
75516;SDS011;64097;52.548;13.406;2023-08-06T07:22:43;4.53;;;4.22;;
75516;SDS011;64097;52.548;13.406;2023-08-06T07:25:09;4.38;;;4.07;;
75516;SDS011;64097;52.548;13.406;2023-08-06T07:27:34;5.07;;;4.68;;
75516;SDS011;64097;52.548;13.406;2023-08-06T07:30:00;4.72;;;4.32;;
75516;SDS011;64097;52.548;13.406;2023-08-06T07:32:26;4.57;;;4.28;;
75516;SDS011;64097;52.548;13.406;2023-08-06T07:34:53;5.05;;;4.65;;
75516;SDS011;64097;52.548;13.406;2023-08-06T07:37:22;4.95;;;4.55;;
75516;SDS011;64097;52.548;13.406;2023-08-06T07:39:48;4.22;;;3.92;;
75516;SDS011;64097;52.548;13.406;2023-08-06T07:42:14;4.47;;;4.18;;
75516;SDS011;64097;52.548;13.406;2023-08-06T07:44:39;5.00;;;4.70;;
75516;SDS011;64097;52.548;13.406;2023-08-06T07:47:05;5.03;;;4.63;;
75516;SDS011;64097;52.548;13.406;2023-08-06T07:49:31;4.75;;;4.45;;
75516;SDS011;64097;52.548;13.406;2023-08-06T07:51:56;4.45;;;4.15;;
75516;SDS011;64097;52.548;13.406;2023-08-06T07:54:22;4.90;;;4.60;;
75516;SDS011;64097;52.548;13.406;2023-08-06T07:56:49;4.82;;;4.50;;
75516;SDS011;64097;52.548;13.406;2023-08-06T07:59:15;4.85;;;4.55;;
75516;SDS011;64097;52.548;13.406;2023-08-06T08:01:41;5.05;;;4.65;;
75516;SDS011;64097;52.548;13.406;2023-08-06T08:04:06;6.30;;;5.80;;
75516;SDS011;64097;52.548;13.406;2023-08-06T08:06:33;5.03;;;4.63;;
75516;SDS011;64097;52.548;13.406;2023-08-06T08:08:58;5.10;;;4.70;;
75516;SDS011;64097;52.548;13.406;2023-08-06T08:11:25;5.10;;;4.70;;
75516;SDS011;64097;52.548;13.406;2023-08-06T08:13:51;4.75;;;4.45;;
75516;SDS011;64097;52.548;13.406;2023-08-06T08:16:16;4.50;;;4.20;;
75516;SDS011;64097;52.548;13.406;2023-08-06T08:18:42;5.28;;;4.88;;
75516;SDS011;64097;52.548;13.406;2023-08-06T08:21:08;4.75;;;4.38;;
75516;SDS011;64097;52.548;13.406;2023-08-06T08:23:34;4.65;;;4.35;;
75516;SDS011;64097;52.548;13.406;2023-08-06T08:25:59;5.38;;;4.97;;
75516;SDS011;64097;52.548;13.406;2023-08-06T08:28:27;5.22;;;4.80;;
75516;SDS011;64097;52.548;13.406;2023-08-06T08:30:52;4.90;;;4.50;;
75516;SDS011;64097;52.548;13.406;2023-08-06T08:33:18;4.30;;;4.00;;
75516;SDS011;64097;52.548;13.406;2023-08-06T08:35:45;4.95;;;4.55;;
75516;SDS011;64097;52.548;13.406;2023-08-06T08:38:11;5.35;;;5.00;;
75516;SDS011;64097;52.548;13.406;2023-08-06T08:40:37;6.07;;;5.57;;
75516;SDS011;64097;52.548;13.406;2023-08-06T08:45:39;5.13;;;4.82;;
75516;SDS011;64097;52.548;13.406;2023-08-06T08:48:07;5.32;;;4.93;;
75516;SDS011;64097;52.548;13.406;2023-08-06T08:50:36;5.20;;;4.90;;
75516;SDS011;64097;52.548;13.406;2023-08-06T08:53:02;5.65;;;5.25;;
75516;SDS011;64097;52.548;13.406;2023-08-06T08:55:28;5.38;;;4.97;;
75516;SDS011;64097;52.548;13.406;2023-08-06T08:57:54;5.72;;;5.32;;
75516;SDS011;64097;52.548;13.406;2023-08-06T09:00:20;6.20;;;5.70;;
75516;SDS011;64097;52.548;13.406;2023-08-06T09:02:45;6.93;;;6.43;;
75516;SDS011;64097;52.548;13.406;2023-08-06T09:05:12;6.15;;;5.75;;
75516;SDS011;64097;52.548;13.406;2023-08-06T09:07:41;6.57;;;6.07;;
75516;SDS011;64097;52.548;13.406;2023-08-06T09:10:11;5.82;;;5.43;;
75516;SDS011;64097;52.548;13.406;2023-08-06T09:12:39;7.18;;;6.60;;
75516;SDS011;64097;52.548;13.406;2023-08-06T09:15:05;7.72;;;7.13;;
75516;SDS011;64097;52.548;13.406;2023-08-06T09:17:31;7.82;;;7.22;;
75516;SDS011;64097;52.548;13.406;2023-08-06T09:19:56;6.72;;;6.22;;
75516;SDS011;64097;52.548;13.406;2023-08-06T09:22:22;7.80;;;7.20;;
75516;SDS011;64097;52.548;13.406;2023-08-06T09:24:48;7.00;;;6.50;;
75516;SDS011;64097;52.548;13.406;2023-08-06T09:27:14;8.23;;;7.53;;
75516;SDS011;64097;52.548;13.406;2023-08-06T09:29:44;8.32;;;7.72;;
75516;SDS011;64097;52.548;13.406;2023-08-06T09:32:13;8.10;;;7.50;;
75516;SDS011;64097;52.548;13.406;2023-08-06T09:34:39;8.70;;;8.00;;
75516;SDS011;64097;52.548;13.406;2023-08-06T09:37:08;7.30;;;6.80;;
75516;SDS011;64097;52.548;13.406;2023-08-06T09:39:35;7.18;;;6.57;;
75516;SDS011;64097;52.548;13.406;2023-08-06T09:42:01;7.13;;;6.53;;
75516;SDS011;64097;52.548;13.406;2023-08-06T09:44:27;7.03;;;6.47;;
75516;SDS011;64097;52.548;13.406;2023-08-06T09:46:55;7.38;;;6.88;;
75516;SDS011;64097;52.548;13.406;2023-08-06T09:49:25;7.18;;;6.57;;
75516;SDS011;64097;52.548;13.406;2023-08-06T09:51:52;7.80;;;7.20;;
75516;SDS011;64097;52.548;13.406;2023-08-06T09:54:20;7.00;;;6.50;;
75516;SDS011;64097;52.548;13.406;2023-08-06T09:56:48;8.07;;;7.47;;
75516;SDS011;64097;52.548;13.406;2023-08-06T09:59:14;7.45;;;6.93;;
75516;SDS011;64097;52.548;13.406;2023-08-06T10:01:41;7.55;;;6.95;;
75516;SDS011;64097;52.548;13.406;2023-08-06T10:04:06;7.82;;;7.22;;
75516;SDS011;64097;52.548;13.406;2023-08-06T10:06:33;6.32;;;5.82;;
75516;SDS011;64097;52.548;13.406;2023-08-06T10:09:05;5.93;;;5.53;;
75516;SDS011;64097;52.548;13.406;2023-08-06T10:11:31;5.20;;;4.90;;
75516;SDS011;64097;52.548;13.406;2023-08-06T10:13:58;4.65;;;4.35;;
75516;SDS011;64097;52.548;13.406;2023-08-06T10:16:29;3.40;;;3.20;;
75516;SDS011;64097;52.548;13.406;2023-08-06T10:18:55;3.50;;;3.30;;
75516;SDS011;64097;52.548;13.406;2023-08-06T10:21:23;3.40;;;3.20;;
75516;SDS011;64097;52.548;13.406;2023-08-06T10:23:58;4.32;;;4.03;;
75516;SDS011;64097;52.548;13.406;2023-08-06T10:26:27;4.53;;;4.22;;
75516;SDS011;64097;52.548;13.406;2023-08-06T10:28:53;3.90;;;3.60;;
75516;SDS011;64097;52.548;13.406;2023-08-06T10:31:19;4.43;;;4.13;;
75516;SDS011;64097;52.548;13.406;2023-08-06T10:33:58;3.53;;;3.33;;
75516;SDS011;64097;52.548;13.406;2023-08-06T10:36:24;3.47;;;3.28;;
75516;SDS011;64097;52.548;13.406;2023-08-06T10:38:52;3.75;;;3.45;;
75516;SDS011;64097;52.548;13.406;2023-08-06T10:41:22;3.20;;;3.00;;
75516;SDS011;64097;52.548;13.406;2023-08-06T10:43:55;3.15;;;2.95;;
75516;SDS011;64097;52.548;13.406;2023-08-06T10:46:33;3.33;;;3.13;;
75516;SDS011;64097;52.548;13.406;2023-08-06T10:48:59;3.47;;;3.28;;
75516;SDS011;64097;52.548;13.406;2023-08-06T10:51:25;3.13;;;2.92;;
75516;SDS011;64097;52.548;13.406;2023-08-06T10:53:52;3.78;;;3.58;;
75516;SDS011;64097;52.548;13.406;2023-08-06T10:56:22;3.88;;;3.58;;
75516;SDS011;64097;52.548;13.406;2023-08-06T10:58:51;3.47;;;3.28;;
75516;SDS011;64097;52.548;13.406;2023-08-06T11:01:18;3.63;;;3.42;;
75516;SDS011;64097;52.548;13.406;2023-08-06T11:03:45;3.20;;;3.00;;
75516;SDS011;64097;52.548;13.406;2023-08-06T11:06:21;3.65;;;3.45;;
75516;SDS011;64097;52.548;13.406;2023-08-06T11:08:51;4.20;;;3.90;;
75516;SDS011;64097;52.548;13.406;2023-08-06T11:11:19;3.88;;;3.58;;
75516;SDS011;64097;52.548;13.406;2023-08-06T11:13:46;3.80;;;3.60;;
75516;SDS011;64097;52.548;13.406;2023-08-06T11:16:17;5.00;;;4.60;;
75516;SDS011;64097;52.548;13.406;2023-08-06T11:18:45;4.60;;;4.20;;
75516;SDS011;64097;52.548;13.406;2023-08-06T11:21:12;4.80;;;4.40;;
75516;SDS011;64097;52.548;13.406;2023-08-06T11:23:38;4.18;;;3.88;;
75516;SDS011;64097;52.548;13.406;2023-08-06T11:26:05;4.30;;;4.00;;
75516;SDS011;64097;52.548;13.406;2023-08-06T11:28:31;4.05;;;3.75;;
75516;SDS011;64097;52.548;13.406;2023-08-06T11:30:57;4.47;;;4.18;;
75516;SDS011;64097;52.548;13.406;2023-08-06T11:33:26;4.20;;;3.90;;
75516;SDS011;64097;52.548;13.406;2023-08-06T11:35:56;3.95;;;3.65;;
75516;SDS011;64097;52.548;13.406;2023-08-06T11:38:27;4.72;;;4.35;;
75516;SDS011;64097;52.548;13.406;2023-08-06T11:40:53;4.53;;;4.22;;
75516;SDS011;64097;52.548;13.406;2023-08-06T11:43:20;4.78;;;4.47;;
75516;SDS011;64097;52.548;13.406;2023-08-06T11:45:47;4.30;;;4.00;;
75516;SDS011;64097;52.548;13.406;2023-08-06T11:48:14;4.47;;;4.18;;
75516;SDS011;64097;52.548;13.406;2023-08-06T11:50:40;4.75;;;4.45;;
75516;SDS011;64097;52.548;13.406;2023-08-06T11:53:05;4.60;;;4.30;;
75516;SDS011;64097;52.548;13.406;2023-08-06T11:55:32;5.70;;;5.30;;
75516;SDS011;64097;52.548;13.406;2023-08-06T11:57:58;5.70;;;5.30;;
75516;SDS011;64097;52.548;13.406;2023-08-06T12:00:28;5.60;;;5.20;;
75516;SDS011;64097;52.548;13.406;2023-08-06T12:02:54;5.32;;;4.82;;
75516;SDS011;64097;52.548;13.406;2023-08-06T12:05:21;5.63;;;5.20;;
75516;SDS011;64097;52.548;13.406;2023-08-06T12:07:52;5.90;;;5.40;;
75516;SDS011;64097;52.548;13.406;2023-08-06T12:10:20;6.78;;;6.18;;
75516;SDS011;64097;52.548;13.406;2023-08-06T12:12:47;5.88;;;5.38;;
75516;SDS011;64097;52.548;13.406;2023-08-06T12:15:13;5.40;;;5.00;;
75516;SDS011;64097;52.548;13.406;2023-08-06T12:17:39;6.10;;;5.60;;
75516;SDS011;64097;52.548;13.406;2023-08-06T12:20:05;6.72;;;6.22;;
75516;SDS011;64097;52.548;13.406;2023-08-06T12:22:32;6.50;;;6.00;;
75516;SDS011;64097;52.548;13.406;2023-08-06T12:25:04;6.38;;;5.82;;
75516;SDS011;64097;52.548;13.406;2023-08-06T12:27:46;6.25;;;5.75;;
75516;SDS011;64097;52.548;13.406;2023-08-06T12:30:12;5.40;;;5.05;;
75516;SDS011;64097;52.548;13.406;2023-08-06T12:32:38;6.32;;;5.82;;
75516;SDS011;64097;52.548;13.406;2023-08-06T12:35:04;6.60;;;6.10;;
75516;SDS011;64097;52.548;13.406;2023-08-06T12:37:32;5.93;;;5.53;;
75516;SDS011;64097;52.548;13.406;2023-08-06T12:39:58;5.68;;;5.28;;
75516;SDS011;64097;52.548;13.406;2023-08-06T12:42:24;6.13;;;5.72;;
75516;SDS011;64097;52.548;13.406;2023-08-06T12:44:50;6.00;;;5.53;;
75516;SDS011;64097;52.548;13.406;2023-08-06T12:47:16;5.90;;;5.50;;
75516;SDS011;64097;52.548;13.406;2023-08-06T12:49:42;5.90;;;5.50;;
75516;SDS011;64097;52.548;13.406;2023-08-06T12:52:08;5.93;;;5.53;;
75516;SDS011;64097;52.548;13.406;2023-08-06T12:54:34;5.63;;;5.22;;
75516;SDS011;64097;52.548;13.406;2023-08-06T12:57:03;5.40;;;5.00;;
75516;SDS011;64097;52.548;13.406;2023-08-06T12:59:30;5.90;;;5.40;;
75516;SDS011;64097;52.548;13.406;2023-08-06T13:01:56;5.50;;;5.10;;
75516;SDS011;64097;52.548;13.406;2023-08-06T13:04:21;6.88;;;6.28;;
75516;SDS011;64097;52.548;13.406;2023-08-06T13:06:47;5.68;;;5.18;;
75516;SDS011;64097;52.548;13.406;2023-08-06T13:09:13;5.95;;;5.45;;
75516;SDS011;64097;52.548;13.406;2023-08-06T13:11:39;6.30;;;5.80;;
75516;SDS011;64097;52.548;13.406;2023-08-06T13:14:06;5.45;;;5.05;;
75516;SDS011;64097;52.548;13.406;2023-08-06T13:16:34;6.40;;;5.90;;
75516;SDS011;64097;52.548;13.406;2023-08-06T13:19:00;6.57;;;6.07;;
75516;SDS011;64097;52.548;13.406;2023-08-06T13:21:33;5.75;;;5.32;;
75516;SDS011;64097;52.548;13.406;2023-08-06T13:24:16;5.65;;;5.15;;
75516;SDS011;64097;52.548;13.406;2023-08-06T13:26:42;5.60;;;5.10;;
75516;SDS011;64097;52.548;13.406;2023-08-06T13:29:08;6.15;;;5.65;;
75516;SDS011;64097;52.548;13.406;2023-08-06T13:31:35;6.75;;;6.15;;
75516;SDS011;64097;52.548;13.406;2023-08-06T13:34:01;5.88;;;5.38;;
75516;SDS011;64097;52.548;13.406;2023-08-06T13:36:27;5.50;;;5.10;;
75516;SDS011;64097;52.548;13.406;2023-08-06T13:38:53;5.05;;;4.65;;
75516;SDS011;64097;52.548;13.406;2023-08-06T13:41:19;5.70;;;5.20;;
75516;SDS011;64097;52.548;13.406;2023-08-06T13:43:45;4.85;;;4.45;;
75516;SDS011;64097;52.548;13.406;2023-08-06T13:46:11;5.40;;;5.00;;
75516;SDS011;64097;52.548;13.406;2023-08-06T13:48:41;4.85;;;4.45;;
75516;SDS011;64097;52.548;13.406;2023-08-06T13:51:10;5.40;;;4.97;;
75516;SDS011;64097;52.548;13.406;2023-08-06T13:53:37;5.43;;;5.03;;
75516;SDS011;64097;52.548;13.406;2023-08-06T13:56:06;5.53;;;5.10;;
75516;SDS011;64097;52.548;13.406;2023-08-06T13:58:32;5.00;;;4.50;;
